Time;durP1;ratioP1;P1;durP2;ratioP2;P2;SDS_P1;SDS_P2;PMS_P1;PMS_P2;Temp;Humidity;BMP_temperature;BMP_pressure;BME280_temperature;BME280_humidity;BME280_pressure;Samples;Min_cycle;Max_cycle;Signal;HPM_P1;HPM_P2
2023/12/04 00:01:36;;;;;;;17.40;11.50;;;-6.50;95.00;;;;;;5045758;28;20646;-89
2023/12/04 00:04:03;;;;;;;19.73;11.50;;;-6.30;94.60;;;;;;5051821;28;20201;-89
2023/12/04 00:06:30;;;;;;;17.60;11.60;;;-6.30;94.30;;;;;;5047562;28;20614;-89
2023/12/04 00:08:57;;;;;;;16.50;10.97;;;-6.30;94.10;;;;;;5044032;28;20565;-89
2023/12/04 00:11:25;;;;;;;17.30;11.00;;;-6.20;93.50;;;;;;5050989;28;20213;-88
2023/12/04 00:13:52;;;;;;;15.27;10.47;;;-6.10;93.10;;;;;;5049373;28;20202;-88
2023/12/04 00:16:19;;;;;;;17.37;11.30;;;-6.10;92.70;;;;;;5048642;28;20737;-91
2023/12/04 00:18:46;;;;;;;15.67;11.03;;;-6.10;92.70;;;;;;5048933;28;20850;-88
2023/12/04 00:21:14;;;;;;;17.80;10.87;;;-6.20;92.70;;;;;;5046641;28;20202;-90
2023/12/04 00:23:40;;;;;;;15.07;10.17;;;-6.40;92.70;;;;;;5047831;28;20202;-88
2023/12/04 00:26:08;;;;;;;15.83;10.63;;;-6.50;93.10;;;;;;5041285;28;20222;-88
2023/12/04 00:28:37;;;;;;;15.33;10.43;;;-6.60;93.60;;;;;;5049632;28;20647;-88
2023/12/04 00:31:05;;;;;;;18.87;10.47;;;-6.60;93.40;;;;;;5028740;28;20194;-88
2023/12/04 00:33:32;;;;;;;17.37;10.80;;;-6.70;93.60;;;;;;5050231;28;20819;-92
2023/12/04 00:35:59;;;;;;;16.17;10.40;;;-6.60;93.90;;;;;;5050091;28;20202;-89
2023/12/04 00:38:25;;;;;;;17.10;10.00;;;-6.60;93.70;;;;;;5051209;28;20207;-90
2023/12/04 00:40:52;;;;;;;14.27;9.90;;;-6.50;93.80;;;;;;5044016;28;20197;-88
2023/12/04 00:43:19;;;;;;;15.17;9.87;;;-6.60;93.60;;;;;;5050832;28;20203;-88
2023/12/04 00:45:47;;;;;;;13.70;9.30;;;-6.50;93.90;;;;;;5048819;28;20683;-88
2023/12/04 00:48:14;;;;;;;14.60;9.50;;;-6.60;93.90;;;;;;5052934;28;20198;-89
2023/12/04 00:50:41;;;;;;;14.97;9.70;;;-6.60;93.90;;;;;;5051996;28;20287;-89
2023/12/04 00:53:08;;;;;;;14.60;9.13;;;-6.60;94.00;;;;;;5044565;28;20216;-88
2023/12/04 00:55:35;;;;;;;16.30;9.97;;;-6.60;94.00;;;;;;5048638;28;20205;-89
2023/12/04 00:58:02;;;;;;;15.03;9.60;;;-6.70;93.70;;;;;;5046834;28;20281;-88
2023/12/04 01:00:28;;;;;;;16.83;9.70;;;-6.80;93.80;;;;;;5050176;28;20216;-89
2023/12/04 01:02:57;;;;;;;16.07;9.37;;;-6.70;93.80;;;;;;5051224;28;20209;-88
2023/12/04 01:05:23;;;;;;;16.13;9.47;;;-6.60;93.70;;;;;;5042767;28;20226;-89
2023/12/04 01:07:51;;;;;;;15.33;9.30;;;-6.50;93.40;;;;;;5047547;28;20202;-89
2023/12/04 01:10:18;;;;;;;13.73;8.80;;;-6.40;92.80;;;;;;5044672;28;20210;-89
2023/12/04 01:12:44;;;;;;;14.20;9.33;;;-6.40;92.70;;;;;;5048455;28;20225;-88
2023/12/04 01:15:11;;;;;;;13.93;9.10;;;-6.40;92.70;;;;;;5052440;28;20209;-88
2023/12/04 01:17:38;;;;;;;12.37;8.77;;;-6.40;92.70;;;;;;5051215;28;20203;-89
2023/12/04 01:20:08;;;;;;;13.33;8.93;;;-6.40;92.70;;;;;;5052933;28;20200;-88
2023/12/04 01:22:35;;;;;;;11.70;7.97;;;-6.40;92.70;;;;;;5049214;28;20221;-89
2023/12/04 01:25:03;;;;;;;12.43;8.60;;;-6.40;92.70;;;;;;5044387;28;20247;-90
2023/12/04 01:27:29;;;;;;;12.93;8.43;;;-6.50;92.70;;;;;;5044382;28;20233;-88
2023/12/04 01:29:56;;;;;;;13.40;8.30;;;-6.50;92.70;;;;;;5051640;28;20201;-88
2023/12/04 01:32:23;;;;;;;13.07;8.70;;;-6.50;93.10;;;;;;5044381;28;20204;-88
2023/12/04 01:34:50;;;;;;;13.23;8.43;;;-6.60;92.90;;;;;;5042023;28;20205;-88
2023/12/04 01:37:18;;;;;;;13.03;8.20;;;-6.70;92.90;;;;;;5053232;28;20212;-88
2023/12/04 01:39:45;;;;;;;11.47;7.57;;;-6.60;93.60;;;;;;5049860;28;20194;-88
2023/12/04 01:42:12;;;;;;;11.67;7.67;;;-6.50;93.80;;;;;;5051907;28;20200;-89
2023/12/04 01:44:39;;;;;;;12.40;7.77;;;-6.40;93.30;;;;;;5050478;28;20210;-88
2023/12/04 01:47:07;;;;;;;11.90;7.83;;;-6.30;93.30;;;;;;5051825;28;20201;-88
2023/12/04 01:49:34;;;;;;;13.10;8.30;;;-6.40;92.70;;;;;;5045796;28;20206;-88
2023/12/04 01:52:01;;;;;;;10.70;7.13;;;-6.40;92.70;;;;;;5048551;28;20204;-88
2023/12/04 01:54:30;;;;;;;13.93;8.37;;;-6.40;92.70;;;;;;5048368;28;20202;-89
2023/12/04 01:56:57;;;;;;;12.73;7.83;;;-6.20;92.70;;;;;;5049255;28;20189;-88
2023/12/04 01:59:24;;;;;;;12.33;6.70;;;-6.20;92.60;;;;;;5043055;28;20573;-88
2023/12/04 02:01:51;;;;;;;12.40;7.37;;;-6.30;92.50;;;;;;5042106;28;20575;-88
2023/12/04 02:04:18;;;;;;;11.97;6.97;;;-6.40;92.40;;;;;;5041448;28;20206;-88
2023/12/04 02:06:45;;;;;;;9.73;6.73;;;-6.40;92.70;;;;;;5044415;28;20248;-88
2023/12/04 02:09:14;;;;;;;10.93;7.30;;;-6.40;92.70;;;;;;5048428;28;20646;-88
2023/12/04 02:11:42;;;;;;;11.03;7.23;;;-6.40;92.70;;;;;;5050113;28;20293;-88
2023/12/04 02:14:09;;;;;;;10.60;7.17;;;-6.40;92.70;;;;;;5043263;28;20213;-88
2023/12/04 02:16:40;;;;;;;10.47;7.33;;;-6.60;92.60;;;;;;5040030;28;20198;-89
2023/12/04 02:19:08;;;;;;;13.67;7.57;;;-6.70;92.60;;;;;;5024426;28;20272;-89
2023/12/04 02:21:35;;;;;;;11.13;7.00;;;-6.70;92.60;;;;;;5051372;28;20745;-88
2023/12/04 02:24:04;;;;;;;8.80;6.33;;;-6.80;92.70;;;;;;5046510;28;20201;-89
2023/12/04 02:26:36;;;;;;;10.30;7.23;;;-6.70;93.30;;;;;;5039602;28;20221;-88
2023/12/04 02:29:08;;;;;;;10.80;6.73;;;-6.60;93.10;;;;;;5050406;28;20250;-89
2023/12/04 02:31:37;;;;;;;9.93;6.90;;;-6.50;92.90;;;;;;5044969;28;20651;-89
2023/12/04 02:34:07;;;;;;;10.60;6.70;;;-6.60;92.70;;;;;;5029762;28;20251;-89
2023/12/04 02:36:35;;;;;;;9.47;6.13;;;-6.70;93.20;;;;;;5047416;28;20198;-88
2023/12/04 02:39:04;;;;;;;10.00;6.33;;;-6.70;93.00;;;;;;5052239;28;20205;-88
2023/12/04 02:41:30;;;;;;;9.40;6.20;;;-6.80;92.60;;;;;;5054171;28;20583;-88
2023/12/04 02:43:58;;;;;;;9.23;6.07;;;-6.90;92.60;;;;;;5034722;28;20202;-88
2023/12/04 02:46:25;;;;;;;9.63;5.83;;;-7.00;93.10;;;;;;5041239;28;20236;-88
2023/12/04 02:48:51;;;;;;;8.80;5.67;;;-7.00;93.20;;;;;;5042300;28;20215;-89
2023/12/04 02:51:18;;;;;;;7.77;5.53;;;-7.10;93.20;;;;;;5042662;28;20204;-88
2023/12/04 02:53:45;;;;;;;9.03;5.80;;;-7.10;93.40;;;;;;5046472;28;20212;-88
2023/12/04 02:56:14;;;;;;;8.77;6.07;;;-7.00;92.90;;;;;;5053498;28;20669;-89
2023/12/04 02:58:41;;;;;;;9.20;5.73;;;-7.00;92.90;;;;;;5055514;28;20215;-88
2023/12/04 03:01:08;;;;;;;10.00;5.50;;;-6.90;92.60;;;;;;5057619;28;20207;-88
2023/12/04 03:03:34;;;;;;;8.70;5.70;;;-6.90;92.60;;;;;;5056582;28;20212;-88
2023/12/04 03:06:01;;;;;;;8.67;5.87;;;-7.00;92.60;;;;;;5034497;28;20706;-87
2023/12/04 03:08:28;;;;;;;7.90;5.47;;;-7.20;92.50;;;;;;5034329;28;20202;-88
2023/12/04 03:10:55;;;;;;;8.90;5.70;;;-7.30;92.50;;;;;;5054195;28;20197;-88
2023/12/04 03:13:23;;;;;;;10.60;6.00;;;-7.50;92.50;;;;;;5053883;28;20217;-88
2023/12/04 03:15:50;;;;;;;9.53;6.00;;;-7.60;93.10;;;;;;5052637;28;20206;-88
2023/12/04 03:18:17;;;;;;;9.40;5.90;;;-7.70;93.60;;;;;;5046226;28;20205;-89
2023/12/04 03:20:44;;;;;;;9.33;5.87;;;-7.70;93.90;;;;;;5033946;28;20213;-88
2023/12/04 03:27:08;;;;;;;11.57;6.60;;;-7.60;94.10;;;;;;5073042;28;20226;-88
2023/12/04 03:29:36;;;;;;;8.60;6.00;;;-7.50;94.10;;;;;;5073568;28;20200;-88
2023/12/04 03:32:03;;;;;;;9.37;6.60;;;-7.30;93.60;;;;;;5073911;28;20556;-88
2023/12/04 03:34:30;;;;;;;11.40;7.17;;;-7.20;93.00;;;;;;5064632;28;20221;-88
2023/12/04 03:36:56;;;;;;;10.50;6.30;;;-7.20;92.50;;;;;;5073655;28;20641;-88
2023/12/04 03:39:23;;;;;;;9.07;6.83;;;-7.20;93.00;;;;;;5073348;28;20208;-88
2023/12/04 03:41:50;;;;;;;8.87;6.40;;;-7.20;92.50;;;;;;5040300;28;20210;-88
2023/12/04 03:44:17;;;;;;;9.37;6.43;;;-7.10;92.50;;;;;;5055086;28;20195;-88
2023/12/04 03:46:45;;;;;;;8.93;6.53;;;-7.00;92.10;;;;;;5073440;28;20230;-88
2023/12/04 03:49:12;;;;;;;11.43;6.87;;;-6.90;91.80;;;;;;5056047;28;20187;-88
2023/12/04 03:51:39;;;;;;;10.50;7.07;;;-6.90;91.10;;;;;;5073434;28;20207;-88
2023/12/04 03:54:06;;;;;;;11.57;6.83;;;-7.00;91.00;;;;;;5050201;28;20204;-89
2023/12/04 03:56:33;;;;;;;10.20;7.30;;;-7.30;91.10;;;;;;5044254;28;20203;-88
2023/12/04 03:59:00;;;;;;;9.23;6.80;;;-7.50;91.70;;;;;;5055656;28;20208;-88
2023/12/04 04:01:27;;;;;;;9.90;7.00;;;-7.60;92.20;;;;;;5068255;28;20204;-89
2023/12/04 04:03:55;;;;;;;11.53;7.97;;;-7.70;92.40;;;;;;5067569;28;20211;-88
2023/12/04 04:06:22;;;;;;;13.07;8.13;;;-7.80;92.40;;;;;;5058084;28;20228;-88
2023/12/04 04:08:49;;;;;;;10.23;7.70;;;-8.00;92.80;;;;;;5065157;28;20683;-87
2023/12/04 04:11:16;;;;;;;10.90;7.73;;;-7.90;94.00;;;;;;5053237;28;20200;-88
2023/12/04 04:13:43;;;;;;;9.77;7.40;;;-7.70;93.60;;;;;;5056401;28;20205;-88
2023/12/04 04:16:15;;;;;;;12.33;7.97;;;-7.60;92.70;;;;;;5046956;28;20212;-88
2023/12/04 04:18:42;;;;;;;14.10;9.33;;;-7.70;92.60;;;;;;5069530;28;20198;-89
2023/12/04 04:21:11;;;;;;;13.30;9.57;;;-7.80;93.50;;;;;;5064904;28;20203;-88
2023/12/04 04:23:38;;;;;;;11.63;8.23;;;-7.90;94.30;;;;;;5047699;28;20214;-88
2023/12/04 04:26:05;;;;;;;14.10;9.27;;;-7.90;94.60;;;;;;5035326;28;20228;-88
2023/12/04 04:28:32;;;;;;;15.17;9.77;;;-7.90;94.50;;;;;;5052010;28;20198;-89
2023/12/04 04:30:59;;;;;;;13.83;9.70;;;-8.00;94.50;;;;;;5038375;28;20287;-87
2023/12/04 04:33:26;;;;;;;14.03;8.83;;;-8.00;94.60;;;;;;5052300;28;20198;-88
2023/12/04 04:35:53;;;;;;;13.03;8.93;;;-8.00;95.00;;;;;;5028357;28;20205;-89
2023/12/04 04:38:21;;;;;;;16.87;9.43;;;-8.00;95.00;;;;;;5047682;28;20200;-88
2023/12/04 04:40:52;;;;;;;15.60;8.33;;;-7.90;94.70;;;;;;5052526;28;20200;-89
2023/12/04 04:43:19;;;;;;;13.27;8.63;;;-8.00;93.50;;;;;;5052612;28;20208;-88
2023/12/04 04:45:46;;;;;;;13.70;7.80;;;-7.50;92.50;;;;;;5049625;28;20225;-89
2023/12/04 04:48:13;;;;;;;12.67;8.97;;;-7.50;91.80;;;;;;5053974;28;20655;-88
2023/12/04 04:50:40;;;;;;;13.33;9.07;;;-7.60;91.30;;;;;;5056323;28;20196;-88
2023/12/04 04:53:07;;;;;;;13.50;8.77;;;-7.90;91.60;;;;;;5054188;28;20195;-88
2023/12/04 04:55:35;;;;;;;11.57;8.23;;;-8.20;92.30;;;;;;5037890;28;20645;-88
2023/12/04 04:58:02;;;;;;;13.20;9.23;;;-8.20;93.40;;;;;;5050183;28;20225;-88
2023/12/04 05:00:29;;;;;;;13.97;9.47;;;-8.10;93.70;;;;;;5042055;28;20224;-89
2023/12/04 05:02:56;;;;;;;14.93;10.17;;;-8.20;93.60;;;;;;5022969;28;20563;-89
2023/12/04 05:05:23;;;;;;;13.47;9.50;;;-8.20;94.20;;;;;;5055008;28;20212;-89
2023/12/04 05:07:50;;;;;;;13.73;9.43;;;-8.20;94.90;;;;;;5048842;28;20256;-89
2023/12/04 05:10:17;;;;;;;15.90;10.07;;;-8.10;95.00;;;;;;5054952;28;20681;-89
2023/12/04 05:12:45;;;;;;;14.50;9.83;;;-8.10;95.00;;;;;;5052994;28;20204;-89
2023/12/04 05:15:12;;;;;;;14.60;9.30;;;-8.00;95.20;;;;;;5055232;28;20207;-88
2023/12/04 05:17:39;;;;;;;12.97;9.10;;;-7.90;95.20;;;;;;5054101;28;20201;-88
2023/12/04 05:20:07;;;;;;;11.60;8.33;;;-7.80;94.90;;;;;;5051968;28;20205;-89
2023/12/04 05:22:35;;;;;;;14.77;8.83;;;-8.00;94.70;;;;;;5055284;28;20218;-89
2023/12/04 05:25:02;;;;;;;13.53;8.73;;;-7.60;94.30;;;;;;5055832;28;20206;-88
2023/12/04 05:27:29;;;;;;;14.90;9.20;;;-7.40;93.20;;;;;;5021454;28;20228;-88
2023/12/04 05:29:57;;;;;;;11.87;8.37;;;-7.40;92.50;;;;;;5037459;28;20209;-87
2023/12/04 05:32:24;;;;;;;10.83;7.77;;;-7.50;92.40;;;;;;5058506;28;20634;-88
2023/12/04 05:34:51;;;;;;;14.57;8.40;;;-7.40;92.50;;;;;;5055812;28;20199;-88
2023/12/04 05:37:18;;;;;;;18.13;8.67;;;-7.50;92.40;;;;;;5054287;28;20209;-89
2023/12/04 05:39:45;;;;;;;13.73;9.17;;;-7.60;92.40;;;;;;5053738;28;20210;-88
2023/12/04 05:42:12;;;;;;;12.93;8.83;;;-7.50;92.40;;;;;;5052626;28;20200;-88
2023/12/04 05:44:38;;;;;;;12.10;8.43;;;-7.40;92.50;;;;;;5040600;28;20202;-88
2023/12/04 05:47:08;;;;;;;12.20;7.97;;;-7.30;91.90;;;;;;5051593;28;20221;-89
2023/12/04 05:49:35;;;;;;;11.57;8.40;;;-7.20;91.40;;;;;;5051511;28;20647;-87
2023/12/04 05:52:18;;;;;;;20.47;15.07;;;-7.20;91.20;;;;;;5054301;28;20274;-86
2023/12/04 05:54:45;;;;;;;14.40;9.73;;;-7.20;90.90;;;;;;5050510;28;20205;-91
2023/12/04 05:57:12;;;;;;;14.77;9.33;;;-7.30;90.80;;;;;;5051641;28;20642;-87
2023/12/04 05:59:39;;;;;;;13.10;9.37;;;-7.60;91.00;;;;;;5027497;28;20201;-89
2023/12/04 06:02:11;;;;;;;13.53;8.67;;;-7.70;91.80;;;;;;5054882;28;20227;-88
2023/12/04 06:04:37;;;;;;;12.63;8.50;;;-7.80;92.30;;;;;;5052127;28;20258;-86
2023/12/04 06:07:04;;;;;;;14.93;8.90;;;-7.90;91.60;;;;;;5054796;28;20315;-84
2023/12/04 06:09:31;;;;;;;12.53;8.30;;;-7.40;91.30;;;;;;5047003;28;20199;-85
2023/12/04 06:11:58;;;;;;;12.50;8.93;;;-7.50;91.20;;;;;;5048010;28;20207;-85
2023/12/04 06:14:25;;;;;;;13.47;8.90;;;-7.50;91.10;;;;;;5052823;28;20211;-89
2023/12/04 06:16:52;;;;;;;13.73;9.20;;;-7.70;91.20;;;;;;5057577;28;20295;-89
2023/12/04 06:19:20;;;;;;;13.27;8.77;;;-7.80;91.80;;;;;;5049907;28;20203;-89
2023/12/04 06:21:47;;;;;;;16.90;8.57;;;-7.70;92.20;;;;;;5052696;28;20848;-89
2023/12/04 06:24:14;;;;;;;13.60;9.33;;;-7.60;91.80;;;;;;5047907;28;20206;-85
2023/12/04 06:26:43;;;;;;;14.53;8.43;;;-7.60;91.50;;;;;;5056008;28;20223;-85
2023/12/04 06:29:10;;;;;;;12.30;8.17;;;-7.70;91.40;;;;;;5034896;28;20736;-86
2023/12/04 06:31:38;;;;;;;12.00;8.03;;;-7.60;91.70;;;;;;5052584;28;20200;-86
2023/12/04 06:34:05;;;;;;;11.70;7.70;;;-7.70;91.80;;;;;;5049967;28;20279;-86
2023/12/04 06:36:44;;;;;;;11.97;8.53;;;-7.50;91.60;;;;;;5047834;28;20238;-87
2023/12/04 06:39:12;;;;;;;12.20;7.60;;;-7.40;91.40;;;;;;5048086;28;20201;-86
2023/12/04 06:41:40;;;;;;;11.33;7.43;;;-7.40;91.10;;;;;;5047252;28;20210;-86
2023/12/04 06:44:08;;;;;;;10.77;7.47;;;-7.50;91.30;;;;;;5048093;28;20204;-86
2023/12/04 06:46:37;;;;;;;11.53;8.10;;;-7.60;91.40;;;;;;5051829;28;20221;-87
2023/12/04 06:49:06;;;;;;;14.77;7.70;;;-7.70;91.70;;;;;;5048038;28;20203;-87
2023/12/04 06:51:33;;;;;;;16.37;10.20;;;-7.80;92.40;;;;;;5051564;28;20211;-87
2023/12/04 06:54:02;;;;;;;9.93;6.90;;;-7.60;92.40;;;;;;5036168;28;20211;-87
2023/12/04 06:56:29;;;;;;;12.97;7.80;;;-7.40;92.00;;;;;;5052831;28;20291;-87
2023/12/04 06:58:55;;;;;;;12.63;7.67;;;-7.30;91.80;;;;;;5056375;28;20209;-87
2023/12/04 07:01:22;;;;;;;12.37;7.40;;;-7.40;91.30;;;;;;5032517;28;20254;-87
2023/12/04 07:03:49;;;;;;;11.37;7.00;;;-7.40;91.50;;;;;;5051362;28;20746;-87
2023/12/04 07:06:16;;;;;;;10.37;7.20;;;-7.30;91.30;;;;;;5035019;28;20212;-87
2023/12/04 07:08:44;;;;;;;10.00;7.10;;;-7.70;91.20;;;;;;5052242;28;20679;-87
2023/12/04 07:11:14;;;;;;;12.50;7.67;;;-7.40;91.50;;;;;;5052535;28;20205;-87
2023/12/04 07:13:42;;;;;;;13.13;7.90;;;-7.80;91.60;;;;;;5048818;28;20228;-88
2023/12/04 07:16:09;;;;;;;11.20;7.10;;;-7.60;92.40;;;;;;5044651;28;20575;-87
2023/12/04 07:18:36;;;;;;;10.10;7.33;;;-7.60;92.40;;;;;;5052212;28;20205;-88
2023/12/04 07:21:04;;;;;;;10.83;7.30;;;-7.30;92.50;;;;;;5051800;28;20969;-88
2023/12/04 07:23:31;;;;;;;11.10;7.33;;;-7.00;91.70;;;;;;5051789;28;20217;-88
2023/12/04 07:25:58;;;;;;;11.17;7.80;;;-7.00;91.10;;;;;;5047455;28;20207;-87
2023/12/04 07:28:26;;;;;;;11.27;7.37;;;-7.00;91.00;;;;;;5053763;28;20218;-87
2023/12/04 07:30:53;;;;;;;10.20;6.13;;;-7.10;91.40;;;;;;5053847;28;20201;-87
2023/12/04 07:33:42;;;;;;;11.20;7.00;;;-6.80;91.70;;;;;;5038973;28;20193;-88
2023/12/04 07:36:09;;;;;;;11.60;6.80;;;-6.60;90.90;;;;;;5053858;28;20191;-88
2023/12/04 07:38:36;;;;;;;11.90;6.57;;;-6.50;90.50;;;;;;5035685;28;20203;-87
2023/12/04 07:41:04;;;;;;;12.90;6.30;;;-6.50;90.10;;;;;;5053838;28;20197;-86
2023/12/04 07:43:35;;;;;;;10.57;6.47;;;-6.70;90.70;;;;;;5053692;28;20186;-88
2023/12/04 07:46:01;;;;;;;13.30;7.33;;;-6.80;91.20;;;;;;5034721;28;20260;-86
2023/12/04 07:48:29;;;;;;;11.10;7.17;;;-6.60;91.40;;;;;;5052140;28;20225;-88
2023/12/04 07:50:56;;;;;;;13.93;8.53;;;-6.40;90.90;;;;;;5048231;28;20198;-87
2023/12/04 07:53:23;;;;;;;12.57;8.07;;;-6.20;90.40;;;;;;5045901;28;20200;-88
2023/12/04 07:55:50;;;;;;;12.77;8.30;;;-6.10;90.10;;;;;;5050506;28;20857;-88
2023/12/04 07:58:17;;;;;;;14.07;8.47;;;-6.10;90.10;;;;;;5049798;28;20211;-88
2023/12/04 08:00:46;;;;;;;16.87;9.30;;;-6.00;90.20;;;;;;5049120;28;20194;-88
2023/12/04 08:03:13;;;;;;;12.53;7.60;;;-5.80;90.10;;;;;;5050304;28;20205;-88
2023/12/04 08:05:40;;;;;;;14.00;8.20;;;-5.70;90.10;;;;;;5051922;28;20544;-85
2023/12/04 08:08:06;;;;;;;12.13;7.77;;;-5.80;90.10;;;;;;5048484;28;20226;-88
2023/12/04 08:10:33;;;;;;;13.40;8.13;;;-5.80;90.30;;;;;;5055967;28;20205;-86
2023/12/04 08:13:00;;;;;;;13.20;8.53;;;-5.70;90.70;;;;;;5052807;28;20801;-85
2023/12/04 08:15:27;;;;;;;11.50;7.53;;;-5.60;90.90;;;;;;5053130;28;20210;-86
2023/12/04 08:17:57;;;;;;;17.23;8.40;;;-5.40;90.60;;;;;;5048232;28;20203;-87
2023/12/04 08:20:24;;;;;;;12.10;7.60;;;-5.10;90.30;;;;;;5052510;28;20228;-86
2023/12/04 08:22:51;;;;;;;12.00;8.10;;;-4.80;89.10;;;;;;5035500;28;20213;-86
2023/12/04 08:25:18;;;;;;;13.70;8.37;;;-4.70;87.90;;;;;;5042587;28;20197;-86
2023/12/04 08:27:45;;;;;;;13.07;8.40;;;-4.70;87.40;;;;;;5036230;28;20756;-88
2023/12/04 08:30:12;;;;;;;14.03;8.83;;;-4.90;87.70;;;;;;5051274;28;20216;-87
2023/12/04 08:32:39;;;;;;;15.60;9.10;;;-5.00;90.10;;;;;;5054494;28;20201;-88
2023/12/04 08:35:08;;;;;;;14.03;9.13;;;-4.70;89.70;;;;;;5052905;28;20204;-86
2023/12/04 08:37:35;;;;;;;14.60;9.30;;;-4.60;88.90;;;;;;5051191;28;20206;-87
2023/12/04 08:40:02;;;;;;;12.40;7.93;;;-4.50;88.30;;;;;;5053661;28;20238;-86
2023/12/04 08:42:29;;;;;;;12.00;7.90;;;-4.70;88.90;;;;;;5049148;28;20199;-86
2023/12/04 08:44:56;;;;;;;13.23;7.13;;;-4.70;89.70;;;;;;5051171;28;20205;-85
2023/12/04 08:47:23;;;;;;;11.60;6.83;;;-4.40;88.70;;;;;;5050823;28;20225;-85
2023/12/04 08:49:50;;;;;;;10.07;7.10;;;-4.30;88.40;;;;;;5048159;28;20217;-85
2023/12/04 08:52:18;;;;;;;12.53;6.93;;;-4.20;87.90;;;;;;5053058;28;20211;-86
2023/12/04 08:54:45;;;;;;;10.63;7.03;;;-4.20;86.90;;;;;;5053465;28;20621;-88
2023/12/04 08:57:12;;;;;;;11.73;7.40;;;-4.10;86.70;;;;;;5049131;28;20204;-86
2023/12/04 08:59:39;;;;;;;9.67;7.00;;;-4.30;87.90;;;;;;5049157;28;20198;-86
2023/12/04 09:02:05;;;;;;;13.10;8.10;;;-4.20;89.60;;;;;;5054008;28;20197;-87
2023/12/04 09:04:32;;;;;;;11.90;7.93;;;-3.90;89.20;;;;;;5052774;28;20206;-86
2023/12/04 09:07:00;;;;;;;13.97;8.30;;;-3.60;85.70;;;;;;5046243;28;20224;-88
2023/12/04 09:09:28;;;;;;;11.50;7.83;;;-3.70;85.60;;;;;;5050404;28;20205;-86
2023/12/04 09:11:55;;;;;;;12.53;8.20;;;-3.50;86.50;;;;;;5052766;28;20202;-86
2023/12/04 09:14:22;;;;;;;10.73;7.87;;;-3.60;85.90;;;;;;5048186;28;20198;-84
2023/12/04 09:16:48;;;;;;;12.90;7.70;;;-3.20;85.10;;;;;;5047926;28;20249;-83
2023/12/04 09:19:15;;;;;;;11.63;7.60;;;-3.10;83.10;;;;;;5052549;28;20210;-85
2023/12/04 09:21:44;;;;;;;11.40;7.73;;;-3.20;83.80;;;;;;5051607;28;20233;-84
2023/12/04 09:24:10;;;;;;;13.10;7.03;;;-2.70;83.00;;;;;;5046405;28;20724;-84
2023/12/04 09:26:39;;;;;;;10.87;7.37;;;-2.20;80.10;;;;;;5050200;28;20201;-85
2023/12/04 09:29:05;;;;;;;9.43;6.77;;;-1.90;76.20;;;;;;5050942;28;20229;-85
2023/12/04 09:31:32;;;;;;;10.80;7.07;;;-1.70;69.40;;;;;;5049919;28;20219;-83
2023/12/04 09:33:59;;;;;;;9.47;6.83;;;-1.90;71.90;;;;;;5051786;28;20213;-84
2023/12/04 09:36:26;;;;;;;14.13;7.10;;;-1.60;69.20;;;;;;5051096;28;20653;-84
2023/12/04 09:38:53;;;;;;;11.37;7.10;;;-1.80;68.00;;;;;;5051481;28;20209;-83
2023/12/04 09:41:21;;;;;;;11.73;7.50;;;-2.10;75.40;;;;;;5057647;28;20193;-84
2023/12/04 09:43:49;;;;;;;11.87;7.57;;;-1.90;74.10;;;;;;5052403;28;20208;-84
2023/12/04 09:46:17;;;;;;;9.87;6.97;;;-1.80;73.50;;;;;;5052219;28;20197;-85
2023/12/04 09:48:44;;;;;;;9.63;6.87;;;-1.90;75.70;;;;;;5051277;28;20225;-84
2023/12/04 09:51:11;;;;;;;9.23;6.33;;;-1.60;75.20;;;;;;5055436;28;20211;-84
2023/12/04 09:53:39;;;;;;;9.77;6.80;;;-1.70;76.10;;;;;;5050992;28;20574;-84
2023/12/04 09:56:09;;;;;;;8.80;6.50;;;-1.50;73.80;;;;;;5033012;28;20728;-88
2023/12/04 09:58:38;;;;;;;8.50;6.20;;;-1.40;71.30;;;;;;5049797;28;20293;-86
2023/12/04 10:01:08;;;;;;;12.10;7.03;;;-1.40;71.60;;;;;;5048112;28;20288;-85
2023/12/04 10:03:36;;;;;;;9.63;6.83;;;-1.40;69.80;;;;;;5049963;28;20657;-85
2023/12/04 10:06:04;;;;;;;10.77;6.63;;;-1.60;73.00;;;;;;5050428;28;20546;-85
2023/12/04 10:08:31;;;;;;;8.87;6.40;;;-1.70;73.80;;;;;;5049952;28;20310;-86
2023/12/04 10:10:58;;;;;;;12.17;7.70;;;-1.90;76.20;;;;;;5057823;28;21319;-85
2023/12/04 10:13:25;;;;;;;11.50;7.27;;;-1.70;77.40;;;;;;5034505;28;20237;-85
2023/12/04 10:15:52;;;;;;;11.87;8.03;;;-1.40;75.00;;;;;;5032104;28;20846;-85
2023/12/04 10:18:29;;;;;;;13.17;7.70;;;-1.60;74.90;;;;;;5049946;28;20205;-85
2023/12/04 10:20:56;;;;;;;11.83;7.37;;;-1.70;77.40;;;;;;5055976;28;20197;-85
2023/12/04 10:23:23;;;;;;;11.60;6.67;;;-1.60;77.30;;;;;;5051696;28;20234;-85
2023/12/04 10:25:50;;;;;;;11.83;7.20;;;-1.20;76.60;;;;;;5051583;28;20202;-86
2023/12/04 10:28:18;;;;;;;11.20;7.60;;;-1.10;74.00;;;;;;5051595;28;20225;-84
2023/12/04 10:30:46;;;;;;;10.03;7.27;;;-1.30;77.20;;;;;;5030579;28;20657;-85
2023/12/04 10:33:14;;;;;;;11.97;7.10;;;-0.50;72.10;;;;;;5032637;28;20972;-85
2023/12/04 10:35:44;;;;;;;11.07;7.30;;;0.20;64.70;;;;;;5049957;28;20194;-84
2023/12/04 10:38:11;;;;;;;15.23;7.93;;;0.50;56.00;;;;;;5051191;28;20260;-85
2023/12/04 10:40:38;;;;;;;17.30;7.40;;;0.40;53.80;;;;;;5045997;28;20206;-85
2023/12/04 10:43:13;;;;;;;12.43;7.50;;;0.40;56.30;;;;;;5051684;28;20199;-86
2023/12/04 10:45:41;;;;;;;10.43;7.10;;;0.30;54.90;;;;;;5046761;28;20209;-85
2023/12/04 10:48:09;;;;;;;10.10;6.77;;;0.30;56.70;;;;;;5044680;28;20222;-85
2023/12/04 10:50:37;;;;;;;10.07;7.07;;;-0.10;57.40;;;;;;5046579;28;20198;-84
2023/12/04 10:53:07;;;;;;;11.43;8.10;;;-0.30;62.70;;;;;;5048090;28;20292;-89
2023/12/04 10:55:34;;;;;;;11.63;7.73;;;-0.30;64.20;;;;;;5049237;28;20198;-84
2023/12/04 10:58:03;;;;;;;12.27;7.37;;;-0.60;67.60;;;;;;5050269;28;20319;-85
2023/12/04 11:00:33;;;;;;;11.63;7.73;;;-0.80;73.60;;;;;;5050949;28;20202;-87
2023/12/04 11:03:05;;;;;;;11.67;8.27;;;-0.50;73.60;;;;;;5048741;28;20198;-86
2023/12/04 11:05:34;;;;;;;10.03;7.60;;;-0.50;76.70;;;;;;5039987;28;20286;-86
2023/12/04 11:08:04;;;;;;;11.60;8.40;;;-0.40;75.60;;;;;;5050248;28;20229;-86
2023/12/04 11:10:35;;;;;;;12.33;9.00;;;-0.20;73.20;;;;;;5050941;28;20236;-86
2023/12/04 11:13:07;;;;;;;14.77;10.07;;;-0.50;76.20;;;;;;5047930;28;20719;-86
2023/12/04 11:15:39;;;;;;;13.73;10.23;;;-0.50;74.30;;;;;;5048669;28;21009;-87
2023/12/04 11:18:09;;;;;;;17.67;10.03;;;-0.70;76.30;;;;;;5049389;28;20224;-84
2023/12/04 11:20:42;;;;;;;15.23;10.50;;;-0.80;76.80;;;;;;5029485;28;20190;-87
2023/12/04 11:23:09;;;;;;;18.40;10.70;;;-0.80;77.40;;;;;;5028539;28;20275;-88
2023/12/04 11:25:39;;;;;;;15.00;10.30;;;-1.00;80.10;;;;;;5049288;28;20198;-86
2023/12/04 11:28:07;;;;;;;14.67;10.27;;;-0.90;81.70;;;;;;5045896;28;20323;-87
2023/12/04 11:30:34;;;;;;;16.33;10.73;;;-0.40;77.90;;;;;;5048252;28;20206;-86
2023/12/04 11:33:01;;;;;;;14.33;10.20;;;0.00;73.10;;;;;;5050673;28;20206;-86
2023/12/04 11:35:29;;;;;;;16.87;10.53;;;0.00;66.90;;;;;;5047537;28;20200;-86
2023/12/04 11:37:56;;;;;;;15.13;9.40;;;0.10;71.00;;;;;;5050870;28;20217;-86
2023/12/04 11:40:23;;;;;;;15.10;10.20;;;0.10;69.00;;;;;;5048710;28;20205;-87
2023/12/04 11:42:53;;;;;;;15.93;9.67;;;0.10;70.90;;;;;;5045210;28;20250;-85
2023/12/04 11:45:21;;;;;;;22.37;9.53;;;0.00;72.00;;;;;;5047475;28;20678;-86
2023/12/04 11:47:52;;;;;;;21.00;9.67;;;-0.60;77.90;;;;;;5049135;28;20198;-84
2023/12/04 11:50:20;;;;;;;14.93;9.57;;;-0.90;78.80;;;;;;5058162;28;20202;-84
2023/12/04 11:52:48;;;;;;;17.27;10.43;;;-1.20;81.60;;;;;;5050286;28;20210;-85
2023/12/04 11:55:18;;;;;;;15.93;9.90;;;-1.40;83.00;;;;;;5049670;28;20205;-85
2023/12/04 11:57:46;;;;;;;17.87;9.73;;;-1.50;86.20;;;;;;5055083;28;20212;-86
2023/12/04 12:00:23;;;;;;;12.73;9.07;;;-1.10;85.10;;;;;;5054852;28;20208;-87
2023/12/04 12:03:04;;;;;;;15.60;9.70;;;-0.90;84.20;;;;;;5028224;28;20233;-86
2023/12/04 12:05:33;;;;;;;18.60;9.93;;;-0.70;80.80;;;;;;5049124;28;20243;-86
2023/12/04 12:08:02;;;;;;;14.60;10.10;;;-0.70;79.30;;;;;;5046430;28;20267;-86
2023/12/04 12:10:30;;;;;;;19.60;9.47;;;-0.80;81.00;;;;;;5041396;28;20257;-86
2023/12/04 12:12:57;;;;;;;17.77;10.10;;;-0.60;81.20;;;;;;5052195;28;20201;-86
2023/12/04 12:15:26;;;;;;;16.30;9.43;;;-0.60;82.00;;;;;;5048467;28;20201;-86
2023/12/04 12:17:53;;;;;;;16.80;9.67;;;-0.30;81.60;;;;;;5053454;28;20201;-87
2023/12/04 12:20:20;;;;;;;16.63;9.33;;;0.00;79.30;;;;;;5046463;28;20268;-87
2023/12/04 12:22:48;;;;;;;15.50;9.97;;;0.00;78.50;;;;;;5050557;28;20225;-90
2023/12/04 12:25:15;;;;;;;13.53;9.20;;;-0.10;80.30;;;;;;5051286;28;20652;-86
2023/12/04 12:27:42;;;;;;;13.63;9.20;;;0.00;80.50;;;;;;5050388;28;20201;-88
2023/12/04 12:30:09;;;;;;;16.53;9.60;;;0.00;78.50;;;;;;5048503;28;20279;-87
2023/12/04 12:32:38;;;;;;;13.67;8.90;;;0.20;79.50;;;;;;5048811;28;20204;-85
2023/12/04 12:35:07;;;;;;;13.50;9.90;;;0.40;78.70;;;;;;5053533;28;20193;-82
2023/12/04 12:37:34;;;;;;;14.50;10.23;;;0.40;75.40;;;;;;5053407;28;20202;-87
2023/12/04 12:40:04;;;;;;;13.70;10.80;;;0.20;75.50;;;;;;5058894;28;20201;-88
2023/12/04 12:42:31;;;;;;;16.30;10.90;;;-0.30;77.40;;;;;;5061523;28;20210;-86
2023/12/04 12:45:02;;;;;;;15.40;10.63;;;-0.70;81.00;;;;;;5059719;28;20190;-85